sensor_id;sensor_type;location;lat;lon;timestamp;pressure;altitude;pressure_sealevel;temperature;humidity
55576;BME280;41437;45.478;9.116;2022-10-30T00:01:28;100593.38;;;13.08;100.00
55576;BME280;41437;45.478;9.116;2022-10-30T00:04:31;100598.25;;;13.01;100.00
55576;BME280;41437;45.478;9.116;2022-10-30T00:07:33;100596.34;;;13.02;100.00
55576;BME280;41437;45.478;9.116;2022-10-30T00:10:36;100587.19;;;13.01;100.00
55576;BME280;41437;45.478;9.116;2022-10-30T00:13:38;100588.63;;;13.04;100.00
55576;BME280;41437;45.478;9.116;2022-10-30T00:16:40;100584.13;;;12.98;100.00
55576;BME280;41437;45.478;9.116;2022-10-30T00:19:41;100590.75;;;12.97;100.00
55576;BME280;41437;45.478;9.116;2022-10-30T00:22:43;100580.78;;;12.96;100.00
55576;BME280;41437;45.478;9.116;2022-10-30T00:25:46;100575.50;;;12.94;100.00
55576;BME280;41437;45.478;9.116;2022-10-30T00:28:49;100579.28;;;12.88;100.00
55576;BME280;41437;45.478;9.116;2022-10-30T00:31:50;100582.00;;;12.83;100.00
55576;BME280;41437;45.478;9.116;2022-10-30T00:34:52;100583.88;;;12.77;100.00
55576;BME280;41437;45.478;9.116;2022-10-30T00:37:54;100579.78;;;12.80;100.00
55576;BME280;41437;45.478;9.116;2022-10-30T00:40:56;100578.84;;;12.74;100.00
55576;BME280;41437;45.478;9.116;2022-10-30T00:43:58;100575.53;;;12.72;100.00
55576;BME280;41437;45.478;9.116;2022-10-30T00:47:02;100571.84;;;12.67;100.00
55576;BME280;41437;45.478;9.116;2022-10-30T00:50:08;100567.16;;;12.67;100.00
55576;BME280;41437;45.478;9.116;2022-10-30T00:53:14;100573.53;;;12.68;100.00
55576;BME280;41437;45.478;9.116;2022-10-30T00:56:21;100563.53;;;12.67;100.00
55576;BME280;41437;45.478;9.116;2022-10-30T00:59:26;100561.88;;;12.66;100.00
55576;BME280;41437;45.478;9.116;2022-10-30T01:02:28;100563.75;;;12.60;100.00
55576;BME280;41437;45.478;9.116;2022-10-30T01:05:31;100565.19;;;12.63;100.00
55576;BME280;41437;45.478;9.116;2022-10-30T01:08:34;100559.06;;;12.61;100.00
55576;BME280;41437;45.478;9.116;2022-10-30T01:11:37;100558.72;;;12.57;100.00
55576;BME280;41437;45.478;9.116;2022-10-30T01:14:41;100561.69;;;12.50;100.00
55576;BME280;41437;45.478;9.116;2022-10-30T01:18:03;100571.06;;;12.49;100.00
55576;BME280;41437;45.478;9.116;2022-10-30T01:21:14;100566.56;;;12.43;100.00
55576;BME280;41437;45.478;9.116;2022-10-30T01:24:30;100562.91;;;12.38;100.00
55576;BME280;41437;45.478;9.116;2022-10-30T01:27:40;100558.13;;;12.33;100.00
55576;BME280;41437;45.478;9.116;2022-10-30T01:30:55;100563.06;;;12.31;100.00
55576;BME280;41437;45.478;9.116;2022-10-30T01:34:10;100549.53;;;12.29;100.00
55576;BME280;41437;45.478;9.116;2022-10-30T01:37:21;100559.97;;;12.27;100.00
55576;BME280;41437;45.478;9.116;2022-10-30T01:40:25;100555.75;;;12.20;100.00
55576;BME280;41437;45.478;9.116;2022-10-30T01:43:28;100552.91;;;12.15;100.00
55576;BME280;41437;45.478;9.116;2022-10-30T01:46:42;100545.69;;;12.14;100.00
55576;BME280;41437;45.478;9.116;2022-10-30T01:50:08;100541.00;;;12.14;100.00
55576;BME280;41437;45.478;9.116;2022-10-30T01:53:24;100539.00;;;12.10;100.00
55576;BME280;41437;45.478;9.116;2022-10-30T01:56:36;100542.03;;;12.08;100.00
55576;BME280;41437;45.478;9.116;2022-10-30T01:59:43;100545.28;;;12.05;100.00
55576;BME280;41437;45.478;9.116;2022-10-30T02:02:48;100538.84;;;11.99;100.00
55576;BME280;41437;45.478;9.116;2022-10-30T02:05:52;100540.03;;;12.03;100.00
55576;BME280;41437;45.478;9.116;2022-10-30T02:08:54;100535.00;;;12.00;100.00
55576;BME280;41437;45.478;9.116;2022-10-30T02:11:57;100533.34;;;11.99;100.00
55576;BME280;41437;45.478;9.116;2022-10-30T02:15:00;100532.50;;;11.99;100.00
55576;BME280;41437;45.478;9.116;2022-10-30T02:18:02;100535.84;;;12.01;100.00
55576;BME280;41437;45.478;9.116;2022-10-30T02:21:06;100531.66;;;11.98;100.00
55576;BME280;41437;45.478;9.116;2022-10-30T02:24:08;100523.63;;;11.97;100.00
55576;BME280;41437;45.478;9.116;2022-10-30T02:27:10;100527.25;;;11.97;100.00
55576;BME280;41437;45.478;9.116;2022-10-30T02:30:12;100525.53;;;11.96;100.00
55576;BME280;41437;45.478;9.116;2022-10-30T02:33:13;100530.31;;;12.01;100.00
55576;BME280;41437;45.478;9.116;2022-10-30T02:36:16;100520.78;;;11.92;100.00
55576;BME280;41437;45.478;9.116;2022-10-30T02:39:19;100518.28;;;11.90;100.00
55576;BME280;41437;45.478;9.116;2022-10-30T02:42:20;100524.91;;;11.89;100.00
55576;BME280;41437;45.478;9.116;2022-10-30T02:45:22;100513.09;;;11.77;100.00
55576;BME280;41437;45.478;9.116;2022-10-30T02:48:24;100519.44;;;11.77;100.00
55576;BME280;41437;45.478;9.116;2022-10-30T02:51:27;100511.16;;;11.77;100.00
55576;BME280;41437;45.478;9.116;2022-10-30T02:54:29;100509.22;;;11.78;100.00
55576;BME280;41437;45.478;9.116;2022-10-30T02:57:30;100527.72;;;11.77;100.00
55576;BME280;41437;45.478;9.116;2022-10-30T03:00:33;100519.69;;;11.76;100.00
55576;BME280;41437;45.478;9.116;2022-10-30T03:03:34;100523.53;;;11.75;100.00
55576;BME280;41437;45.478;9.116;2022-10-30T03:06:37;100516.34;;;11.74;100.00
55576;BME280;41437;45.478;9.116;2022-10-30T03:09:39;100521.63;;;11.75;100.00
55576;BME280;41437;45.478;9.116;2022-10-30T03:12:41;100518.75;;;11.70;100.00
55576;BME280;41437;45.478;9.116;2022-10-30T03:15:42;100522.34;;;11.71;100.00
55576;BME280;41437;45.478;9.116;2022-10-30T03:18:44;100509.84;;;11.63;100.00
55576;BME280;41437;45.478;9.116;2022-10-30T03:21:48;100514.41;;;11.74;100.00
55576;BME280;41437;45.478;9.116;2022-10-30T03:24:49;100525.78;;;11.78;100.00
55576;BME280;41437;45.478;9.116;2022-10-30T03:27:52;100521.09;;;11.78;100.00
55576;BME280;41437;45.478;9.116;2022-10-30T03:30:58;100521.44;;;11.82;100.00
55576;BME280;41437;45.478;9.116;2022-10-30T03:34:00;100516.69;;;11.77;100.00
55576;BME280;41437;45.478;9.116;2022-10-30T03:37:04;100517.63;;;11.83;100.00
55576;BME280;41437;45.478;9.116;2022-10-30T03:40:06;100521.38;;;11.77;100.00
55576;BME280;41437;45.478;9.116;2022-10-30T03:43:08;100529.16;;;11.63;100.00
55576;BME280;41437;45.478;9.116;2022-10-30T03:46:10;100520.28;;;11.44;100.00
55576;BME280;41437;45.478;9.116;2022-10-30T03:49:12;100516.69;;;11.44;100.00
55576;BME280;41437;45.478;9.116;2022-10-30T03:52:15;100520.28;;;11.44;100.00
55576;BME280;41437;45.478;9.116;2022-10-30T03:55:16;100520.03;;;11.46;100.00
55576;BME280;41437;45.478;9.116;2022-10-30T03:58:18;100515.28;;;11.41;100.00
55576;BME280;41437;45.478;9.116;2022-10-30T04:01:19;100524.88;;;11.39;100.00
55576;BME280;41437;45.478;9.116;2022-10-30T04:04:21;100531.81;;;11.41;100.00
55576;BME280;41437;45.478;9.116;2022-10-30T04:07:24;100534.25;;;11.38;100.00
55576;BME280;41437;45.478;9.116;2022-10-30T04:10:27;100541.16;;;11.40;100.00
55576;BME280;41437;45.478;9.116;2022-10-30T04:13:29;100538.66;;;11.39;100.00
55576;BME280;41437;45.478;9.116;2022-10-30T04:16:32;100538.84;;;11.32;100.00
55576;BME280;41437;45.478;9.116;2022-10-30T04:19:33;100536.41;;;11.36;100.00
55576;BME280;41437;45.478;9.116;2022-10-30T04:22:36;100533.97;;;11.39;100.00
55576;BME280;41437;45.478;9.116;2022-10-30T04:25:38;100536.16;;;11.37;100.00
55576;BME280;41437;45.478;9.116;2022-10-30T04:28:39;100539.50;;;11.39;100.00
55576;BME280;41437;45.478;9.116;2022-10-30T04:31:41;100538.31;;;11.35;100.00
55576;BME280;41437;45.478;9.116;2022-10-30T04:34:42;100534.66;;;11.29;100.00
55576;BME280;41437;45.478;9.116;2022-10-30T04:37:52;100529.69;;;11.31;100.00
55576;BME280;41437;45.478;9.116;2022-10-30T04:40:53;100529.47;;;11.33;100.00
55576;BME280;41437;45.478;9.116;2022-10-30T04:43:55;100533.63;;;11.36;100.00
55576;BME280;41437;45.478;9.116;2022-10-30T04:46:57;100526.94;;;11.31;100.00
55576;BME280;41437;45.478;9.116;2022-10-30T04:49:58;100530.97;;;11.24;100.00
55576;BME280;41437;45.478;9.116;2022-10-30T04:53:03;100532.03;;;11.23;100.00
55576;BME280;41437;45.478;9.116;2022-10-30T04:56:05;100530.59;;;11.03;100.00
55576;BME280;41437;45.478;9.116;2022-10-30T04:59:07;100531.41;;;11.04;100.00
55576;BME280;41437;45.478;9.116;2022-10-30T05:02:09;100521.00;;;11.06;100.00
55576;BME280;41437;45.478;9.116;2022-10-30T05:05:10;100521.31;;;11.10;100.00
55576;BME280;41437;45.478;9.116;2022-10-30T05:08:13;100513.03;;;11.10;100.00
55576;BME280;41437;45.478;9.116;2022-10-30T05:11:15;100516.53;;;11.05;100.00
55576;BME280;41437;45.478;9.116;2022-10-30T05:14:17;100506.94;;;11.07;100.00
55576;BME280;41437;45.478;9.116;2022-10-30T05:17:19;100519.06;;;11.06;100.00
55576;BME280;41437;45.478;9.116;2022-10-30T05:20:21;100504.69;;;11.04;100.00
55576;BME280;41437;45.478;9.116;2022-10-30T05:23:24;100509.00;;;11.00;100.00
55576;BME280;41437;45.478;9.116;2022-10-30T05:26:25;100499.16;;;11.04;100.00
55576;BME280;41437;45.478;9.116;2022-10-30T05:29:27;100506.34;;;11.05;100.00
55576;BME280;41437;45.478;9.116;2022-10-30T05:32:28;100506.34;;;11.05;100.00
55576;BME280;41437;45.478;9.116;2022-10-30T05:35:31;100503.84;;;11.04;100.00
55576;BME280;41437;45.478;9.116;2022-10-30T05:38:34;100503.00;;;11.03;100.00
55576;BME280;41437;45.478;9.116;2022-10-30T05:41:36;100510.72;;;11.01;100.00
55576;BME280;41437;45.478;9.116;2022-10-30T05:44:37;100508.03;;;11.06;100.00
55576;BME280;41437;45.478;9.116;2022-10-30T05:47:39;100502.19;;;11.03;100.00
55576;BME280;41437;45.478;9.116;2022-10-30T05:50:41;100511.28;;;11.03;100.00
55576;BME280;41437;45.478;9.116;2022-10-30T05:53:46;100501.91;;;11.04;100.00
55576;BME280;41437;45.478;9.116;2022-10-30T05:56:48;100505.28;;;11.06;100.00
55576;BME280;41437;45.478;9.116;2022-10-30T05:59:49;100508.53;;;11.03;100.00
55576;BME280;41437;45.478;9.116;2022-10-30T06:02:51;100504.31;;;11.01;100.00
55576;BME280;41437;45.478;9.116;2022-10-30T06:05:53;100515.72;;;11.04;100.00
55576;BME280;41437;45.478;9.116;2022-10-30T06:08:56;100510.28;;;11.10;100.00
55576;BME280;41437;45.478;9.116;2022-10-30T06:11:57;100513.91;;;11.10;100.00
55576;BME280;41437;45.478;9.116;2022-10-30T06:14:59;100515.91;;;11.15;100.00
55576;BME280;41437;45.478;9.116;2022-10-30T06:18:01;100512.41;;;11.19;100.00
55576;BME280;41437;45.478;9.116;2022-10-30T06:21:03;100509.22;;;11.27;100.00
55576;BME280;41437;45.478;9.116;2022-10-30T06:24:06;100523.97;;;11.33;100.00
55576;BME280;41437;45.478;9.116;2022-10-30T06:27:08;100516.50;;;11.33;100.00
55576;BME280;41437;45.478;9.116;2022-10-30T06:30:10;100524.63;;;11.40;100.00
55576;BME280;41437;45.478;9.116;2022-10-30T06:33:12;100521.63;;;11.42;100.00
55576;BME280;41437;45.478;9.116;2022-10-30T06:36:13;100526.47;;;11.51;100.00
55576;BME280;41437;45.478;9.116;2022-10-30T06:39:18;100528.47;;;11.56;100.00
55576;BME280;41437;45.478;9.116;2022-10-30T06:42:19;100530.22;;;11.62;100.00
55576;BME280;41437;45.478;9.116;2022-10-30T06:45:22;100529.38;;;11.62;100.00
55576;BME280;41437;45.478;9.116;2022-10-30T06:48:26;100534.91;;;11.62;100.00
55576;BME280;41437;45.478;9.116;2022-10-30T06:51:28;100530.00;;;11.64;100.00
55576;BME280;41437;45.478;9.116;2022-10-30T06:54:31;100530.63;;;11.71;100.00
55576;BME280;41437;45.478;9.116;2022-10-30T06:57:32;100541.88;;;11.81;100.00
55576;BME280;41437;45.478;9.116;2022-10-30T07:00:34;100526.97;;;11.82;100.00
55576;BME280;41437;45.478;9.116;2022-10-30T07:03:36;100541.63;;;11.99;100.00
55576;BME280;41437;45.478;9.116;2022-10-30T07:06:37;100544.53;;;12.10;100.00
55576;BME280;41437;45.478;9.116;2022-10-30T07:09:40;100550.16;;;12.15;100.00
55576;BME280;41437;45.478;9.116;2022-10-30T07:12:50;100554.72;;;12.26;100.00
55576;BME280;41437;45.478;9.116;2022-10-30T07:15:51;100546.56;;;12.36;100.00
55576;BME280;41437;45.478;9.116;2022-10-30T07:18:53;100549.28;;;12.53;100.00
55576;BME280;41437;45.478;9.116;2022-10-30T07:21:55;100557.94;;;12.62;100.00
55576;BME280;41437;45.478;9.116;2022-10-30T07:24:58;100557.00;;;12.73;100.00
55576;BME280;41437;45.478;9.116;2022-10-30T07:27:59;100554.41;;;12.88;100.00
55576;BME280;41437;45.478;9.116;2022-10-30T07:31:01;100556.19;;;12.99;100.00
55576;BME280;41437;45.478;9.116;2022-10-30T07:34:03;100559.34;;;13.08;100.00
55576;BME280;41437;45.478;9.116;2022-10-30T07:37:04;100558.88;;;13.16;100.00
55576;BME280;41437;45.478;9.116;2022-10-30T07:40:08;100570.06;;;13.26;100.00
55576;BME280;41437;45.478;9.116;2022-10-30T07:43:10;100568.19;;;13.32;100.00
55576;BME280;41437;45.478;9.116;2022-10-30T07:46:13;100570.75;;;13.39;100.00
55576;BME280;41437;45.478;9.116;2022-10-30T07:49:15;100569.97;;;13.43;100.00
55576;BME280;41437;45.478;9.116;2022-10-30T07:52:16;100569.47;;;13.46;100.00
55576;BME280;41437;45.478;9.116;2022-10-30T07:55:19;100576.94;;;13.46;100.00
55576;BME280;41437;45.478;9.116;2022-10-30T07:58:21;100582.19;;;13.47;100.00
55576;BME280;41437;45.478;9.116;2022-10-30T08:01:23;100580.56;;;13.51;100.00
55576;BME280;41437;45.478;9.116;2022-10-30T08:04:24;100573.41;;;13.55;100.00
55576;BME280;41437;45.478;9.116;2022-10-30T08:07:28;100586.25;;;13.67;100.00
55576;BME280;41437;45.478;9.116;2022-10-30T08:10:32;100581.59;;;13.72;100.00
55576;BME280;41437;45.478;9.116;2022-10-30T08:13:34;100579.97;;;13.76;100.00
55576;BME280;41437;45.478;9.116;2022-10-30T08:16:36;100591.13;;;13.87;100.00
55576;BME280;41437;45.478;9.116;2022-10-30T08:19:37;100585.38;;;13.93;100.00
55576;BME280;41437;45.478;9.116;2022-10-30T08:22:44;100584.06;;;14.06;100.00
55576;BME280;41437;45.478;9.116;2022-10-30T08:25:47;100589.72;;;14.16;100.00
55576;BME280;41437;45.478;9.116;2022-10-30T08:28:50;100590.59;;;14.27;100.00
55576;BME280;41437;45.478;9.116;2022-10-30T08:31:52;100587.06;;;14.37;100.00
55576;BME280;41437;45.478;9.116;2022-10-30T08:34:54;100584.41;;;14.52;100.00
55576;BME280;41437;45.478;9.116;2022-10-30T08:37:56;100581.69;;;14.62;100.00
55576;BME280;41437;45.478;9.116;2022-10-30T08:41:00;100578.69;;;14.69;100.00
55576;BME280;41437;45.478;9.116;2022-10-30T08:44:02;100589.50;;;14.75;100.00
55576;BME280;41437;45.478;9.116;2022-10-30T08:47:04;100578.47;;;14.86;100.00
55576;BME280;41437;45.478;9.116;2022-10-30T08:50:06;100588.25;;;15.03;100.00
55576;BME280;41437;45.478;9.116;2022-10-30T08:53:11;100582.78;;;15.24;100.00
55576;BME280;41437;45.478;9.116;2022-10-30T08:56:14;100581.13;;;15.43;100.00
55576;BME280;41437;45.478;9.116;2022-10-30T08:59:15;100578.34;;;15.53;100.00
55576;BME280;41437;45.478;9.116;2022-10-30T09:02:17;100571.13;;;15.63;100.00
55576;BME280;41437;45.478;9.116;2022-10-30T09:05:19;100568.13;;;15.69;100.00
55576;BME280;41437;45.478;9.116;2022-10-30T09:08:21;100575.91;;;15.77;100.00
55576;BME280;41437;45.478;9.116;2022-10-30T09:11:24;100572.88;;;15.89;100.00
55576;BME280;41437;45.478;9.116;2022-10-30T09:14:26;100573.41;;;16.01;100.00
55576;BME280;41437;45.478;9.116;2022-10-30T09:17:27;100567.88;;;16.06;100.00
55576;BME280;41437;45.478;9.116;2022-10-30T09:20:29;100574.53;;;16.16;98.88
55576;BME280;41437;45.478;9.116;2022-10-30T09:23:31;100571.72;;;16.21;97.78
55576;BME280;41437;45.478;9.116;2022-10-30T09:26:34;100574.19;;;16.38;96.44
55576;BME280;41437;45.478;9.116;2022-10-30T09:29:36;100572.22;;;16.43;96.55
55576;BME280;41437;45.478;9.116;2022-10-30T09:32:38;100564.69;;;16.59;95.86
55576;BME280;41437;45.478;9.116;2022-10-30T09:35:39;100571.88;;;16.65;95.88
55576;BME280;41437;45.478;9.116;2022-10-30T09:38:41;100572.69;;;16.71;96.19
55576;BME280;41437;45.478;9.116;2022-10-30T09:42:04;100575.19;;;16.82;95.43
55576;BME280;41437;45.478;9.116;2022-10-30T09:45:30;100579.50;;;17.14;94.16
55576;BME280;41437;45.478;9.116;2022-10-30T09:48:46;100571.56;;;17.37;92.40
55576;BME280;41437;45.478;9.116;2022-10-30T09:55:19;100582.72;;;17.76;90.16
55576;BME280;41437;45.478;9.116;2022-10-30T09:58:32;100583.44;;;17.92;88.45
55576;BME280;41437;45.478;9.116;2022-10-30T10:01:44;100577.56;;;17.98;87.50
55576;BME280;41437;45.478;9.116;2022-10-30T10:04:51;100575.22;;;18.05;87.88
55576;BME280;41437;45.478;9.116;2022-10-30T10:07:57;100583.22;;;18.17;86.28
55576;BME280;41437;45.478;9.116;2022-10-30T10:11:04;100578.97;;;18.25;86.36
55576;BME280;41437;45.478;9.116;2022-10-30T10:14:13;100574.41;;;18.34;84.83
55576;BME280;41437;45.478;9.116;2022-10-30T10:17:23;100575.69;;;18.47;84.38
55576;BME280;41437;45.478;9.116;2022-10-30T10:20:30;100579.22;;;18.52;83.53
55576;BME280;41437;45.478;9.116;2022-10-30T10:23:38;100569.00;;;18.67;82.31
55576;BME280;41437;45.478;9.116;2022-10-30T10:26:46;100567.81;;;18.78;82.39
55576;BME280;41437;45.478;9.116;2022-10-30T10:29:56;100564.13;;;18.82;81.84
55576;BME280;41437;45.478;9.116;2022-10-30T10:33:16;100567.97;;;18.87;80.34
55576;BME280;41437;45.478;9.116;2022-10-30T10:36:26;100562.16;;;18.83;80.47
55576;BME280;41437;45.478;9.116;2022-10-30T10:39:43;100568.56;;;19.07;79.92
55576;BME280;41437;45.478;9.116;2022-10-30T10:42:55;100566.81;;;19.12;79.57
55576;BME280;41437;45.478;9.116;2022-10-30T10:46:22;100558.97;;;19.14;78.85
55576;BME280;41437;45.478;9.116;2022-10-30T10:49:36;100559.94;;;19.23;78.38
55576;BME280;41437;45.478;9.116;2022-10-30T10:52:48;100558.59;;;19.39;77.25
55576;BME280;41437;45.478;9.116;2022-10-30T10:55:53;100550.13;;;19.44;77.81
55576;BME280;41437;45.478;9.116;2022-10-30T10:59:00;100546.00;;;19.61;76.67
55576;BME280;41437;45.478;9.116;2022-10-30T11:02:26;100552.91;;;19.82;74.70
55576;BME280;41437;45.478;9.116;2022-10-30T11:05:32;100548.97;;;19.83;74.59
55576;BME280;41437;45.478;9.116;2022-10-30T11:08:36;100546.19;;;19.83;74.38
55576;BME280;41437;45.478;9.116;2022-10-30T11:11:38;100547.56;;;19.86;75.02
55576;BME280;41437;45.478;9.116;2022-10-30T11:14:40;100546.00;;;19.93;72.82
55576;BME280;41437;45.478;9.116;2022-10-30T11:17:49;100533.88;;;19.98;72.24
55576;BME280;41437;45.478;9.116;2022-10-30T11:20:58;100545.84;;;20.03;71.79
55576;BME280;41437;45.478;9.116;2022-10-30T11:24:01;100540.16;;;20.08;72.10
55576;BME280;41437;45.478;9.116;2022-10-30T11:27:17;100536.75;;;20.12;71.83
55576;BME280;41437;45.478;9.116;2022-10-30T11:30:25;100536.94;;;20.15;73.01
55576;BME280;41437;45.478;9.116;2022-10-30T11:33:29;100529.59;;;20.19;72.36
55576;BME280;41437;45.478;9.116;2022-10-30T11:36:35;100527.84;;;20.37;71.28
55576;BME280;41437;45.478;9.116;2022-10-30T11:39:37;100528.09;;;20.54;70.04
55576;BME280;41437;45.478;9.116;2022-10-30T11:42:43;100518.78;;;20.73;68.47
55576;BME280;41437;45.478;9.116;2022-10-30T11:45:47;100517.84;;;20.77;68.31
55576;BME280;41437;45.478;9.116;2022-10-30T11:48:52;100513.56;;;20.80;68.41
55576;BME280;41437;45.478;9.116;2022-10-30T11:51:54;100511.69;;;20.89;68.24
55576;BME280;41437;45.478;9.116;2022-10-30T11:55:00;100510.03;;;20.88;66.68
55576;BME280;41437;45.478;9.116;2022-10-30T11:58:04;100507.53;;;21.00;66.01
55576;BME280;41437;45.478;9.116;2022-10-30T12:01:16;100506.38;;;21.01;64.59
55576;BME280;41437;45.478;9.116;2022-10-30T12:04:24;100504.19;;;20.98;64.92
55576;BME280;41437;45.478;9.116;2022-10-30T12:07:29;100496.19;;;21.05;65.22
55576;BME280;41437;45.478;9.116;2022-10-30T12:10:32;100493.59;;;21.09;64.55
55576;BME280;41437;45.478;9.116;2022-10-30T12:13:38;100490.47;;;21.11;65.08
55576;BME280;41437;45.478;9.116;2022-10-30T12:16:44;100480.94;;;21.12;64.19
55576;BME280;41437;45.478;9.116;2022-10-30T12:19:49;100480.59;;;21.13;64.11
55576;BME280;41437;45.478;9.116;2022-10-30T12:22:51;100479.34;;;21.19;63.95
55576;BME280;41437;45.478;9.116;2022-10-30T12:25:55;100476.03;;;21.17;66.10
55576;BME280;41437;45.478;9.116;2022-10-30T12:28:59;100459.41;;;21.21;64.53
55576;BME280;41437;45.478;9.116;2022-10-30T12:32:06;100459.59;;;21.24;65.12
55576;BME280;41437;45.478;9.116;2022-10-30T12:35:19;100456.22;;;21.14;66.25
55576;BME280;41437;45.478;9.116;2022-10-30T12:38:27;100459.72;;;21.19;65.69
55576;BME280;41437;45.478;9.116;2022-10-30T12:41:33;100457.31;;;21.26;65.64
55576;BME280;41437;45.478;9.116;2022-10-30T12:44:44;100454.44;;;21.18;65.34
55576;BME280;41437;45.478;9.116;2022-10-30T12:47:54;100454.03;;;21.11;65.34
55576;BME280;41437;45.478;9.116;2022-10-30T12:51:11;100447.69;;;21.19;67.55
55576;BME280;41437;45.478;9.116;2022-10-30T12:54:21;100448.38;;;21.24;66.50
55576;BME280;41437;45.478;9.116;2022-10-30T12:57:26;100440.44;;;21.18;67.81
55576;BME280;41437;45.478;9.116;2022-10-30T13:00:35;100446.19;;;21.35;65.15
55576;BME280;41437;45.478;9.116;2022-10-30T13:03:46;100448.44;;;21.47;65.97
55576;BME280;41437;45.478;9.116;2022-10-30T13:06:54;100446.94;;;21.49;65.82
55576;BME280;41437;45.478;9.116;2022-10-30T13:10:24;100434.22;;;21.43;66.79
55576;BME280;41437;45.478;9.116;2022-10-30T13:13:33;100434.22;;;21.43;65.21
55576;BME280;41437;45.478;9.116;2022-10-30T13:16:36;100431.03;;;21.36;65.93
55576;BME280;41437;45.478;9.116;2022-10-30T13:19:38;100425.03;;;21.29;66.22
55576;BME280;41437;45.478;9.116;2022-10-30T13:22:45;100424.41;;;21.32;67.08
55576;BME280;41437;45.478;9.116;2022-10-30T13:25:57;100414.66;;;21.29;68.13
55576;BME280;41437;45.478;9.116;2022-10-30T13:29:12;100413.28;;;21.27;68.15
55576;BME280;41437;45.478;9.116;2022-10-30T13:32:28;100414.22;;;21.36;66.71
55576;BME280;41437;45.478;9.116;2022-10-30T13:35:36;100423.63;;;21.40;66.87
55576;BME280;41437;45.478;9.116;2022-10-30T13:38:47;100408.47;;;21.41;67.23
55576;BME280;41437;45.478;9.116;2022-10-30T13:42:07;100410.78;;;21.39;67.40
55576;BME280;41437;45.478;9.116;2022-10-30T13:45:28;100410.97;;;21.43;67.37
55576;BME280;41437;45.478;9.116;2022-10-30T13:48:48;100406.44;;;21.55;65.67
55576;BME280;41437;45.478;9.116;2022-10-30T13:51:56;100407.69;;;21.49;66.49
55576;BME280;41437;45.478;9.116;2022-10-30T13:55:09;100407.00;;;21.44;67.01
55576;BME280;41437;45.478;9.116;2022-10-30T13:58:19;100398.28;;;21.45;67.77
55576;BME280;41437;45.478;9.116;2022-10-30T14:01:30;100400.00;;;21.55;65.84
55576;BME280;41437;45.478;9.116;2022-10-30T14:04:41;100396.81;;;21.48;65.50
55576;BME280;41437;45.478;9.116;2022-10-30T14:07:53;100402.47;;;21.56;66.44
55576;BME280;41437;45.478;9.116;2022-10-30T14:11:00;100401.78;;;21.51;66.68
55576;BME280;41437;45.478;9.116;2022-10-30T14:14:04;100392.38;;;21.47;67.75
55576;BME280;41437;45.478;9.116;2022-10-30T14:17:12;100397.78;;;21.43;67.88
55576;BME280;41437;45.478;9.116;2022-10-30T14:20:21;100395.22;;;21.33;67.21
55576;BME280;41437;45.478;9.116;2022-10-30T14:23:24;100388.78;;;21.32;67.53
55576;BME280;41437;45.478;9.116;2022-10-30T14:26:29;100397.63;;;21.26;68.48
55576;BME280;41437;45.478;9.116;2022-10-30T14:29:48;100386.66;;;21.16;68.72
55576;BME280;41437;45.478;9.116;2022-10-30T14:32:50;100394.69;;;21.08;69.67
55576;BME280;41437;45.478;9.116;2022-10-30T14:36:11;100385.28;;;21.04;69.29
55576;BME280;41437;45.478;9.116;2022-10-30T14:39:37;100372.84;;;20.97;69.48
55576;BME280;41437;45.478;9.116;2022-10-30T14:42:44;100379.00;;;20.85;70.23
55576;BME280;41437;45.478;9.116;2022-10-30T14:45:52;100381.63;;;20.81;70.87
55576;BME280;41437;45.478;9.116;2022-10-30T14:49:14;100383.06;;;20.79;70.72
55576;BME280;41437;45.478;9.116;2022-10-30T14:52:34;100375.88;;;20.64;72.62
55576;BME280;41437;45.478;9.116;2022-10-30T14:55:49;100372.34;;;20.58;72.58
55576;BME280;41437;45.478;9.116;2022-10-30T14:59:20;100366.56;;;20.55;73.13
55576;BME280;41437;45.478;9.116;2022-10-30T15:02:33;100359.91;;;20.65;73.09
55576;BME280;41437;45.478;9.116;2022-10-30T15:05:42;100372.31;;;20.72;73.42
55576;BME280;41437;45.478;9.116;2022-10-30T15:08:58;100357.50;;;20.58;74.10
55576;BME280;41437;45.478;9.116;2022-10-30T15:12:19;100364.66;;;20.64;73.44
55576;BME280;41437;45.478;9.116;2022-10-30T15:15:24;100366.94;;;20.62;74.02
55576;BME280;41437;45.478;9.116;2022-10-30T15:18:25;100359.28;;;20.54;74.57
55576;BME280;41437;45.478;9.116;2022-10-30T15:21:29;100360.13;;;20.54;74.17
55576;BME280;41437;45.478;9.116;2022-10-30T15:24:34;100359.19;;;20.45;74.97
55576;BME280;41437;45.478;9.116;2022-10-30T15:27:39;100363.97;;;20.31;75.50
55576;BME280;41437;45.478;9.116;2022-10-30T15:30:58;100359.22;;;20.18;76.23
55576;BME280;41437;45.478;9.116;2022-10-30T15:34:00;100358.09;;;20.05;77.11
55576;BME280;41437;45.478;9.116;2022-10-30T15:37:09;100353.13;;;19.88;77.65
55576;BME280;41437;45.478;9.116;2022-10-30T15:40:16;100353.94;;;19.75;79.00
55576;BME280;41437;45.478;9.116;2022-10-30T15:43:21;100348.34;;;19.61;79.28
55576;BME280;41437;45.478;9.116;2022-10-30T15:46:26;100358.25;;;19.53;80.03
55576;BME280;41437;45.478;9.116;2022-10-30T15:49:30;100362.97;;;19.39;80.85
55576;BME280;41437;45.478;9.116;2022-10-30T15:52:33;100357.59;;;19.29;81.50
55576;BME280;41437;45.478;9.116;2022-10-30T15:55:35;100360.84;;;19.17;82.29
55576;BME280;41437;45.478;9.116;2022-10-30T15:58:37;100361.91;;;19.02;83.57
55576;BME280;41437;45.478;9.116;2022-10-30T16:01:44;100357.97;;;18.90;83.99
55576;BME280;41437;45.478;9.116;2022-10-30T16:04:48;100357.59;;;18.77;85.13